»·PEaware :: N185JB KLAX-KSAN

N185JB :: KLAX-KSAN

FLIGHT INFORMATION

Flight Status: Arrived
Operator: Privately registered:
United States
More flights under this callsign
Pilot: Jeremy B. (30440)
Aircraft: PIPER PA-28 CHEROKEE ARCHER
(P28A)
More flights by this aircraft type
Origin: KLAX Los Angeles Intl
United States
Destination: KSAN San Diego Intl-Lindbergh
United States
More flights between these airports :: More routes between these airports
Route: +SLI OCN
File this flight plan on PilotEdge
Remarks:
Altitude:
(Current/Filed)
5,500ft
Speed:
(Current/Filed)
110kts
Departed: 26-Jul-20 06:41 PM
Arrived: 26-Jul-20 07:42 PM
Distance/Time
Traveled:
95nm/1:01
Distance/Time
To Go:
Arrived

Flight Plot

Page will automatically refresh every two minutes.


Map Options




Map Legend


Flown Route
Filed Route
Departure Airport
Arrival Airport
Navaid (VOR, NDB)
Fix

Horizontal Profiles

Position Reports

Time Latitude Longitude Heading Altitude Ground
Speed
26-Jul-20 17:56 33.933255 -118.397440 263 110ft 0kts
26-Jul-20 17:57 33.933255 -118.397440 263 110ft 0kts
26-Jul-20 17:58 33.933255 -118.397440 263 110ft 0kts
26-Jul-20 17:59 33.933255 -118.397440 263 110ft 0kts
26-Jul-20 18:00 33.933255 -118.397440 263 110ft 0kts
26-Jul-20 18:01 33.933255 -118.397440 263 110ft 0kts
26-Jul-20 18:02 33.933255 -118.397440 263 110ft 0kts
26-Jul-20 18:03 33.933255 -118.397440 263 110ft 0kts
26-Jul-20 18:04 33.933255 -118.397440 263 110ft 0kts
26-Jul-20 18:05 33.933255 -118.397440 263 110ft 0kts
26-Jul-20 18:06 33.933255 -118.397440 263 110ft 0kts
26-Jul-20 18:07 33.933255 -118.397440 263 110ft 0kts
26-Jul-20 18:08 33.933255 -118.397440 263 110ft 0kts
26-Jul-20 18:09 33.933255 -118.397440 263 110ft 0kts
26-Jul-20 18:10 33.933255 -118.397440 263 110ft 0kts
26-Jul-20 18:11 33.933255 -118.397440 263 110ft 0kts
26-Jul-20 18:12 33.933255 -118.397440 263 110ft 0kts
26-Jul-20 18:13 33.933255 -118.397440 263 110ft 0kts
26-Jul-20 18:14 33.933255 -118.397440 263 110ft 0kts
26-Jul-20 18:15 33.933255 -118.397440 263 110ft 0kts
26-Jul-20 18:16 33.933255 -118.397440 263 110ft 0kts
26-Jul-20 18:18 33.933255 -118.397440 263 110ft 0kts
26-Jul-20 18:21 33.933264 -118.397438 264 110ft 0kts
26-Jul-20 18:22 33.933264 -118.397438 264 110ft 0kts
26-Jul-20 18:23 33.933264 -118.397438 264 110ft 0kts
26-Jul-20 18:24 33.933264 -118.397438 264 110ft 0kts
26-Jul-20 18:25 33.933264 -118.397438 264 110ft 0kts
26-Jul-20 18:26 33.933264 -118.397438 264 110ft 0kts
26-Jul-20 18:27 33.933264 -118.397438 264 110ft 0kts
26-Jul-20 18:28 33.933264 -118.397438 264 110ft 0kts
26-Jul-20 18:29 33.933264 -118.397438 264 110ft 0kts
26-Jul-20 18:30 33.933270 -118.397514 275 110ft 1kts
26-Jul-20 18:31 33.933742 -118.397997 322 111ft 0kts
26-Jul-20 18:32 33.933742 -118.397997 322 111ft 0kts
26-Jul-20 18:34 33.933744 -118.397998 319 111ft 0kts
26-Jul-20 18:35 33.934825 -118.395198 90 105ft 24kts
26-Jul-20 18:36 33.935694 -118.387012 85 99ft 24kts
26-Jul-20 18:37 33.936081 -118.383233 75 95ft 0kts
26-Jul-20 18:38 33.936081 -118.383233 75 95ft 0kts
26-Jul-20 18:39 33.936081 -118.383233 75 95ft 0kts
26-Jul-20 18:40 33.937089 -118.382959 303 95ft 18kts
26-Jul-20 18:41 33.936566 -118.400567 273 734ft 62kts
26-Jul-20 18:42 33.925263 -118.409993 178 1568ft 76kts
26-Jul-20 18:43 33.908487 -118.394521 140 2375ft 89kts
26-Jul-20 18:44 33.891511 -118.364226 118 2556ft 121kts
26-Jul-20 18:45 33.877131 -118.329093 130 2440ft 114kts
26-Jul-20 18:46 33.864011 -118.295258 106 2449ft 112kts
26-Jul-20 18:47 33.857143 -118.259226 107 2465ft 112kts
26-Jul-20 18:48 33.847608 -118.223849 113 2480ft 111kts
26-Jul-20 18:48 33.839014 -118.195089 112 2493ft 111kts
26-Jul-20 18:50 33.823285 -118.156942 119 2513ft 110kts
26-Jul-20 18:51 33.810468 -118.123333 116 2532ft 110kts
26-Jul-20 18:52 33.795630 -118.091041 126 2535ft 110kts
26-Jul-20 18:52 33.782309 -118.064676 124 2527ft 111kts
26-Jul-20 18:53 33.764356 -118.035184 135 2527ft 109kts
26-Jul-20 18:54 33.743514 -118.008995 139 2529ft 108kts
26-Jul-20 18:55 33.722537 -117.983569 170 2473ft 107kts
26-Jul-20 18:56 33.694984 -117.979498 186 2395ft 102kts
26-Jul-20 18:57 33.666905 -117.982259 185 2326ft 102kts
26-Jul-20 18:58 33.639401 -117.971299 156 2263ft 107kts
26-Jul-20 18:59 33.615666 -117.952460 150 2417ft 102kts
26-Jul-20 19:00 33.596488 -117.926283 129 2497ft 107kts
26-Jul-20 19:01 33.579034 -117.898430 133 2531ft 108kts
26-Jul-20 19:02 33.562023 -117.868952 125 2548ft 109kts
26-Jul-20 19:03 33.546360 -117.837263 128 2521ft 111kts
26-Jul-20 19:04 33.531009 -117.810928 132 2447ft 104kts
26-Jul-20 19:05 33.514375 -117.784447 130 2440ft 99kts
26-Jul-20 19:06 33.498508 -117.758027 134 2468ft 98kts
26-Jul-20 19:07 33.478084 -117.737250 147 2492ft 96kts
26-Jul-20 19:08 33.456266 -117.718759 147 2513ft 96kts
26-Jul-20 19:09 33.436077 -117.699095 143 2516ft 98kts
26-Jul-20 19:10 33.416001 -117.676948 141 2518ft 99kts
26-Jul-20 19:11 33.395850 -117.654932 143 2522ft 98kts
26-Jul-20 19:12 33.374760 -117.634131 147 2524ft 98kts
26-Jul-20 19:13 33.353740 -117.613548 139 2511ft 99kts
26-Jul-20 19:14 33.333550 -117.590606 144 2472ft 99kts
26-Jul-20 19:15 33.312064 -117.570599 140 2437ft 100kts
26-Jul-20 19:16 33.293999 -117.545301 137 2439ft 99kts
26-Jul-20 19:17 33.274931 -117.521562 144 2436ft 98kts
26-Jul-20 19:18 33.255692 -117.498855 136 2433ft 99kts
26-Jul-20 19:19 33.236621 -117.475626 141 2441ft 98kts
26-Jul-20 19:20 33.219034 -117.457785 144 2415ft 102kts
26-Jul-20 19:21 33.196047 -117.437925 146 2472ft 101kts
26-Jul-20 19:22 33.173711 -117.417495 141 2534ft 101kts
26-Jul-20 19:23 33.152360 -117.395304 144 2569ft 103kts
26-Jul-20 19:24 33.129429 -117.374409 147 2544ft 106kts
26-Jul-20 19:25 33.103413 -117.358051 162 2493ft 104kts
26-Jul-20 19:26 33.076529 -117.348972 168 2486ft 103kts
26-Jul-20 19:27 33.049188 -117.338765 158 2477ft 103kts
26-Jul-20 19:28 33.022613 -117.325802 159 2468ft 103kts
26-Jul-20 19:29 32.996206 -117.312060 159 2463ft 103kts
26-Jul-20 19:30 32.969738 -117.298569 157 2458ft 103kts
26-Jul-20 19:31 32.943550 -117.284315 158 2454ft 103kts
26-Jul-20 19:32 32.913290 -117.273476 170 1823ft 128kts
26-Jul-20 19:33 32.881576 -117.266522 168 1600ft 111kts
26-Jul-20 19:34 32.854152 -117.254320 156 1692ft 101kts
26-Jul-20 19:35 32.830104 -117.238935 152 1819ft 102kts
26-Jul-20 19:36 32.805624 -117.222968 164 1941ft 101kts
26-Jul-20 19:37 32.775944 -117.212923 162 1545ft 115kts
26-Jul-20 19:38 32.747921 -117.195407 117 1053ft 112kts
26-Jul-20 19:39 32.738203 -117.162289 105 791ft 97kts
26-Jul-20 19:40 32.728559 -117.169128 288 385ft 76kts
26-Jul-20 19:41 32.732690 -117.185557 284 15ft 14kts
26-Jul-20 19:42 32.733958 -117.188042 26 16ft 0kts
26-Jul-20 19:43 32.733207 -117.183480 104 16ft 26kts

Navigation Log

Ident Type
Flight plan parsing failed, navigation log unavailable